Time;durP1;ratioP1;P1;durP2;ratioP2;P2;SDS_P1;SDS_P2;PMS_P1;PMS_P2;Temp;Humidity;BMP_temperature;BMP_pressure;BME280_temperature;BME280_humidity;BME280_pressure;Samples;Min_cycle;Max_cycle;Signal;HPM_P1;HPM_P2
2022/06/16 00:00:22;;;;;;;;;;;21.50;64.80;;;;;;5052323;28;20044;-49
2022/06/16 00:03:09;;;;;;;7.13;4.13;;;21.30;65.50;;;;;;5052959;28;20046;-49
2022/06/16 00:05:53;;;;;;;6.25;3.63;;;21.40;65.60;;;;;;5050886;28;20503;-48
2022/06/16 00:08:38;;;;;;;5.80;4.03;;;21.30;64.60;;;;;;5052161;28;20083;-51
2022/06/16 00:11:22;;;;;;;5.32;3.90;;;21.10;65.80;;;;;;5052866;28;20072;-51
2022/06/16 00:14:06;;;;;;;6.10;3.90;;;21.00;66.80;;;;;;5032141;28;20048;-53
2022/06/16 00:16:50;;;;;;;;;;;21.00;66.20;;;;;;5040061;28;20072;-49
2022/06/16 00:19:35;;;;;;;6.25;4.25;;;21.00;66.10;;;;;;5052006;28;19979;-48
2022/06/16 00:22:19;;;;;;;7.32;4.07;;;20.90;65.50;;;;;;5051846;28;20039;-49
2022/06/16 00:25:04;;;;;;;4.80;4.30;;;20.70;66.20;;;;;;5052181;28;20052;-49
2022/06/16 00:27:48;;;;;;;6.07;3.90;;;20.60;66.20;;;;;;5035542;28;20547;-50
2022/06/16 00:30:32;;;;;;;6.18;4.22;;;20.50;66.80;;;;;;5053223;28;20109;-49
2022/06/16 00:33:17;;;;;;;12.60;4.57;;;20.70;67.00;;;;;;5053009;28;20475;-55
2022/06/16 00:36:01;;;;;;;6.13;4.20;;;20.60;67.10;;;;;;5052517;28;20554;-52
2022/06/16 00:38:45;;;;;;;6.85;4.10;;;20.50;67.50;;;;;;5051732;28;20091;-53
2022/06/16 00:41:29;;;;;;;;;;;20.40;67.40;;;;;;5051774;28;20040;-49
2022/06/16 00:44:35;;;;;;;6.57;4.10;;;20.20;67.40;;;;;;5052136;28;19931;-47
2022/06/16 00:47:22;;;;;;;6.03;3.78;;;20.20;67.40;;;;;;5051398;28;20033;-52
2022/06/16 00:50:07;;;;;;;6.20;4.28;;;20.20;67.90;;;;;;5051183;28;20040;-53
2022/06/16 00:52:51;;;;;;;6.90;4.30;;;20.20;68.00;;;;;;5051209;28;20068;-52
2022/06/16 00:55:35;;;;;;;6.05;4.55;;;20.20;68.20;;;;;;5051031;28;20044;-51
2022/06/16 00:58:22;;;;;;;5.80;4.22;;;20.20;68.10;;;;;;5050935;28;20031;-49
2022/06/16 01:01:11;;;;;;;7.40;3.80;;;20.30;68.20;;;;;;5051000;28;20044;-47
2022/06/16 01:07:03;;;;;;;11.30;7.65;;;20.30;68.00;;;;;;5043604;28;20080;-51
2022/06/16 01:09:48;;;;;;;7.43;4.72;;;20.30;67.70;;;;;;5051873;28;20112;-46
2022/06/16 01:16:09;;;;;;;6.68;4.43;;;20.50;67.70;;;;;;5051168;28;20044;-50
2022/06/16 01:19:04;;;;;;;6.43;4.28;;;20.30;68.10;;;;;;5055371;28;20532;-49
2022/06/16 01:22:01;;;;;;;5.10;4.07;;;20.10;68.80;;;;;;5055813;28;20044;-47
2022/06/16 01:25:08;;;;;;;7.50;4.57;;;20.00;68.80;;;;;;5054453;28;20040;-49
2022/06/16 01:28:12;;;;;;;6.43;4.10;;;20.10;68.80;;;;;;5054451;28;20023;-53
2022/06/16 01:31:08;;;;;;;7.78;4.30;;;20.10;68.80;;;;;;5034611;28;20033;-47
2022/06/16 01:34:03;;;;;;;6.03;4.13;;;20.00;68.80;;;;;;5046012;28;20036;-51
2022/06/16 01:36:52;;;;;;;9.88;5.22;;;20.00;68.90;;;;;;5054558;28;20051;-51
2022/06/16 01:39:49;;;;;;;9.13;4.78;;;20.10;68.40;;;;;;5054796;28;20039;-52
2022/06/16 01:42:50;;;;;;;6.88;3.92;;;20.10;69.20;;;;;;5056110;28;20083;-52
2022/06/16 01:45:53;;;;;;;7.15;4.75;;;20.00;69.30;;;;;;5054900;28;20086;-50
2022/06/16 01:48:41;;;;;;;6.55;4.50;;;20.00;68.60;;;;;;5055354;28;20064;-53
2022/06/16 01:51:47;;;;;;;6.38;4.18;;;19.80;68.90;;;;;;5055290;28;20043;-46
2022/06/16 01:54:37;;;;;;;6.65;4.28;;;19.60;69.30;;;;;;5055145;28;20341;-48
2022/06/16 01:57:27;;;;;;;7.38;4.28;;;19.60;69.70;;;;;;5054836;28;20527;-51
2022/06/16 02:00:16;;;;;;;5.85;3.85;;;19.40;70.10;;;;;;5054916;28;20078;-55
2022/06/16 02:03:05;;;;;;;6.07;4.30;;;19.40;70.30;;;;;;5040279;28;20489;-52
2022/06/16 02:06:01;;;;;;;10.45;4.07;;;19.30;70.40;;;;;;5054704;28;20040;-50
2022/06/16 02:08:50;;;;;;;5.57;4.55;;;19.40;70.30;;;;;;5055908;28;20071;-50
2022/06/16 02:11:36;;;;;;;6.50;4.22;;;19.50;70.30;;;;;;5055699;28;20120;-53
2022/06/16 02:14:56;;;;;;;9.20;4.30;;;19.30;70.70;;;;;;5054043;28;20125;-51
2022/06/16 02:17:41;;;;;;;9.20;4.70;;;19.20;71.40;;;;;;5010987;28;20094;-48
2022/06/16 02:20:30;;;;;;;7.15;4.53;;;18.90;72.50;;;;;;5053705;28;20174;-54
2022/06/16 02:23:15;;;;;;;6.82;4.70;;;18.90;72.70;;;;;;5056066;28;20058;-55
2022/06/16 02:26:00;;;;;;;5.43;4.47;;;18.70;73.20;;;;;;5053953;28;20070;-54
2022/06/16 02:28:50;;;;;;;7.35;4.63;;;18.70;73.40;;;;;;5052791;28;20052;-49
2022/06/16 02:31:39;;;;;;;7.88;4.57;;;18.60;73.70;;;;;;5054542;28;20408;-51
2022/06/16 02:34:30;;;;;;;6.47;4.28;;;18.50;74.60;;;;;;5054499;28;20539;-50
2022/06/16 02:37:30;;;;;;;8.70;5.10;;;18.50;74.60;;;;;;5054505;28;20098;-48
2022/06/16 02:40:43;;;;;;;8.65;5.10;;;18.20;75.70;;;;;;5054276;28;20397;-53
2022/06/16 02:43:46;;;;;;;9.00;5.28;;;18.30;75.70;;;;;;5054444;28;20112;-49
2022/06/16 02:46:37;;;;;;;6.72;5.22;;;18.30;75.60;;;;;;5033543;28;20051;-52
2022/06/16 02:49:30;;;;;;;7.65;5.10;;;18.30;75.80;;;;;;5039276;28;20381;-49
2022/06/16 02:52:17;;;;;;;8.75;4.75;;;18.30;76.50;;;;;;5054297;28;20040;-52
2022/06/16 02:55:05;;;;;;;7.68;5.20;;;18.30;75.70;;;;;;5054048;28;20052;-52
2022/06/16 02:57:57;;;;;;;11.55;5.40;;;18.30;75.70;;;;;;5054002;28;20024;-52
2022/06/16 03:00:52;;;;;;;7.82;5.40;;;18.40;75.80;;;;;;5053901;28;20080;-49
2022/06/16 03:03:37;;;;;;;8.83;5.27;;;18.20;76.40;;;;;;5038333;28;20090;-51
2022/06/16 03:06:21;;;;;;;8.45;5.25;;;18.10;77.50;;;;;;5053793;28;20087;-54
2022/06/16 03:09:05;;;;;;;6.90;5.20;;;18.00;76.90;;;;;;5054155;28;20044;-52
2022/06/16 03:11:50;;;;;;;6.35;5.28;;;18.00;77.20;;;;;;5054668;28;20405;-51
2022/06/16 03:14:34;;;;;;;9.52;6.18;;;18.00;77.20;;;;;;5054203;28;20044;-49
2022/06/16 03:17:18;;;;;;;9.45;5.70;;;18.10;77.10;;;;;;5053206;28;20512;-48
2022/06/16 03:20:03;;;;;;;7.25;5.70;;;18.00;77.60;;;;;;5037885;28;20561;-48
2022/06/16 03:22:47;;;;;;;6.05;5.13;;;17.90;77.70;;;;;;5052818;28;20139;-52
2022/06/16 03:25:32;;;;;;;8.43;5.20;;;18.00;77.60;;;;;;5053119;28;20054;-54
2022/06/16 03:28:16;;;;;;;6.80;5.45;;;18.10;77.50;;;;;;5054133;28;20040;-49
2022/06/16 03:31:01;;;;;;;8.05;6.43;;;18.10;77.50;;;;;;5037317;28;20043;-48
2022/06/16 03:33:45;;;;;;;10.68;6.10;;;18.10;77.60;;;;;;5052589;28;20028;-49
2022/06/16 03:36:29;;;;;;;11.23;5.75;;;18.10;77.60;;;;;;5052252;28;20067;-47
2022/06/16 03:39:13;;;;;;;6.88;5.55;;;18.10;78.10;;;;;;5051898;28;20078;-51
2022/06/16 03:41:57;;;;;;;6.93;5.25;;;18.00;78.40;;;;;;5038666;28;20416;-53
2022/06/16 03:44:41;;;;;;;12.93;6.30;;;18.00;78.50;;;;;;5033642;28;20083;-48
2022/06/16 03:47:25;;;;;;;14.00;6.05;;;18.00;78.80;;;;;;5051875;28;20048;-50
2022/06/16 03:50:14;;;;;;;8.25;5.15;;;18.10;77.90;;;;;;5052393;28;20039;-47
2022/06/16 03:52:58;;;;;;;10.63;5.78;;;18.30;78.10;;;;;;5052232;28;20546;-51
2022/06/16 03:55:44;;;;;;;8.02;5.38;;;18.40;77.60;;;;;;5050803;28;20028;-49
2022/06/16 03:58:28;;;;;;;;;;;18.40;77.30;;;;;;5053023;28;20090;-47
2022/06/16 04:01:12;;;;;;;8.48;5.70;;;18.30;77.90;;;;;;5045026;28;20273;-47
2022/06/16 04:04:02;;;;;;;10.07;6.20;;;18.10;78.40;;;;;;5052010;28;20043;-49
2022/06/16 04:06:46;;;;;;;7.75;6.40;;;17.90;79.00;;;;;;5051779;28;20036;-50
2022/06/16 04:09:30;;;;;;;8.48;5.95;;;17.90;79.40;;;;;;5051173;28;20044;-47
2022/06/16 04:12:15;;;;;;;8.15;6.30;;;17.80;79.80;;;;;;5052148;28;20051;-51
2022/06/16 04:14:58;;;;;;;8.53;5.90;;;17.70;80.10;;;;;;5037023;28;20044;-52
2022/06/16 04:17:42;;;;;;;8.23;6.30;;;17.80;80.70;;;;;;5053051;28;20279;-48
2022/06/16 04:20:27;;;;;;;9.75;6.15;;;17.80;80.40;;;;;;5051743;28;20067;-49
2022/06/16 04:23:11;;;;;;;9.18;6.15;;;17.80;80.80;;;;;;5052453;28;20025;-54
2022/06/16 04:25:56;;;;;;;7.32;5.55;;;17.90;80.30;;;;;;5050558;28;20400;-50
2022/06/16 04:28:40;;;;;;;8.32;6.55;;;17.90;80.30;;;;;;5051016;28;20047;-54
2022/06/16 04:31:24;;;;;;;10.68;6.07;;;17.80;80.30;;;;;;5050889;28;20117;-53
2022/06/16 04:34:09;;;;;;;13.38;6.38;;;17.70;80.90;;;;;;5035868;28;20112;-50
2022/06/16 04:36:53;;;;;;;11.77;6.55;;;17.70;81.30;;;;;;5051052;28;20040;-48
2022/06/16 04:39:38;;;;;;;10.07;6.57;;;17.60;81.50;;;;;;5051104;28;20098;-51
2022/06/16 04:42:22;;;;;;;11.32;6.35;;;17.60;82.00;;;;;;5051287;28;20507;-49
2022/06/16 04:45:10;;;;;;;11.25;6.35;;;17.70;81.90;;;;;;5050781;28;20079;-50
2022/06/16 04:47:54;;;;;;;13.95;7.07;;;17.60;81.80;;;;;;5050849;28;20714;-50
2022/06/16 04:50:38;;;;;;;9.93;6.30;;;17.50;82.20;;;;;;5050028;28;20036;-50
2022/06/16 04:53:22;;;;;;;8.52;6.00;;;17.60;82.70;;;;;;5036629;28;20036;-51
2022/06/16 04:56:07;;;;;;;9.63;5.95;;;17.60;82.60;;;;;;5049755;28;20032;-51
2022/06/16 04:58:51;;;;;;;;;;;17.70;82.10;;;;;;5051084;28;20043;-52
2022/06/16 05:01:36;;;;;;;12.30;5.90;;;17.70;82.10;;;;;;5050526;28;19919;-50
2022/06/16 05:04:20;;;;;;;10.90;6.65;;;17.50;82.80;;;;;;5050794;28;20040;-49
2022/06/16 05:07:04;;;;;;;9.00;6.22;;;17.50;83.00;;;;;;5050891;28;20459;-48
2022/06/16 05:09:48;;;;;;;9.82;6.15;;;17.60;82.80;;;;;;5051537;28;20107;-51
2022/06/16 05:12:33;;;;;;;11.32;5.85;;;17.50;83.30;;;;;;5051248;28;20035;-51
2022/06/16 05:15:18;;;;;;;8.77;6.63;;;17.50;83.60;;;;;;5040219;28;20496;-53
2022/06/16 05:18:03;;;;;;;9.20;5.80;;;17.70;83.20;;;;;;5050037;28;20072;-49
2022/06/16 05:20:47;;;;;;;6.30;5.43;;;17.80;82.70;;;;;;5050739;28;20174;-50
2022/06/16 05:23:31;;;;;;;6.63;5.28;;;18.10;82.30;;;;;;5050777;28;20044;-52
2022/06/16 05:26:15;;;;;;;10.88;6.10;;;18.10;82.10;;;;;;5050380;28;20120;-52
2022/06/16 05:29:00;;;;;;;9.38;6.10;;;18.10;81.50;;;;;;5021253;28;20060;-50
2022/06/16 05:31:45;;;;;;;12.07;5.97;;;18.00;81.90;;;;;;5051366;28;20047;-51
2022/06/16 05:34:29;;;;;;;9.07;6.03;;;18.10;82.10;;;;;;5050716;28;20120;-51
2022/06/16 05:37:13;;;;;;;9.50;6.10;;;18.10;81.50;;;;;;5049458;28;20056;-50
2022/06/16 05:39:57;;;;;;;8.15;5.93;;;18.00;81.90;;;;;;5050172;28;20151;-51
2022/06/16 05:42:41;;;;;;;9.55;6.60;;;17.80;82.50;;;;;;5049986;28;20601;-52
2022/06/16 05:45:25;;;;;;;14.80;7.00;;;17.80;83.00;;;;;;5030437;28;20039;-53
2022/06/16 05:48:09;;;;;;;10.77;6.65;;;17.70;83.10;;;;;;5034413;28;20048;-51
2022/06/16 05:50:54;;;;;;;10.18;5.97;;;17.70;83.50;;;;;;5050408;28;20036;-48
2022/06/16 05:53:38;;;;;;;;;;;17.70;83.50;;;;;;5035574;28;20063;-47
2022/06/16 05:56:23;;;;;;;13.68;6.43;;;17.90;83.00;;;;;;5049872;28;19959;-51
2022/06/16 05:59:07;;;;;;;11.15;6.65;;;17.90;82.70;;;;;;5050846;28;20499;-53
2022/06/16 06:01:51;;;;;;;11.70;6.47;;;17.90;82.50;;;;;;5033551;28;20097;-50
2022/06/16 06:04:35;;;;;;;10.18;6.80;;;18.00;82.50;;;;;;5053356;28;20684;-48
2022/06/16 06:07:19;;;;;;;11.05;6.28;;;18.00;82.40;;;;;;5047383;28;20098;-51
2022/06/16 06:19:28;;;;;;;9.73;6.43;;;18.00;82.80;;;;;;5053449;28;20079;-53
2022/06/16 06:22:15;;;;;;;10.50;6.45;;;18.00;83.20;;;;;;5053030;28;20095;-50
2022/06/16 06:25:00;;;;;;;11.18;7.15;;;18.00;83.50;;;;;;5053429;28;20112;-50
2022/06/16 06:27:46;;;;;;;12.95;6.72;;;18.10;83.80;;;;;;5052676;28;20086;-49
2022/06/16 06:30:31;;;;;;;10.98;6.85;;;18.20;83.30;;;;;;5052445;28;20120;-51
2022/06/16 06:33:16;;;;;;;13.27;7.65;;;18.30;83.10;;;;;;5053343;28;20036;-48
2022/06/16 06:36:00;;;;;;;11.45;6.82;;;18.30;83.00;;;;;;5052852;28;20406;-50
2022/06/16 06:38:45;;;;;;;12.95;6.53;;;18.40;82.90;;;;;;5052980;28;20043;-53
2022/06/16 06:41:29;;;;;;;8.93;5.72;;;18.50;82.30;;;;;;5053092;28;20536;-55
2022/06/16 06:44:14;;;;;;;9.02;6.32;;;18.50;82.40;;;;;;5052466;28;21677;-52
2022/06/16 06:46:59;;;;;;;10.02;6.20;;;18.50;82.60;;;;;;5052488;28;20044;-51
2022/06/16 06:49:44;;;;;;;11.45;6.07;;;18.50;82.70;;;;;;5053333;28;20091;-53
2022/06/16 06:52:28;;;;;;;9.82;6.30;;;18.40;82.80;;;;;;5053392;28;20171;-52
2022/06/16 06:55:13;;;;;;;10.15;6.47;;;18.50;82.60;;;;;;5052898;28;20032;-49
2022/06/16 06:57:57;;;;;;;;;;;18.20;83.10;;;;;;5052945;28;20738;-47
2022/06/16 07:00:41;;;;;;;12.00;6.60;;;18.20;83.60;;;;;;5052024;28;20010;-47
2022/06/16 07:03:25;;;;;;;11.82;6.15;;;18.30;83.60;;;;;;5051939;28;20071;-47
2022/06/16 07:06:10;;;;;;;7.85;6.20;;;18.20;83.70;;;;;;5051509;28;20086;-56
2022/06/16 07:08:54;;;;;;;8.95;6.60;;;18.20;83.70;;;;;;5044842;28;20176;-52
2022/06/16 07:11:43;;;;;;;10.95;6.00;;;18.10;84.00;;;;;;5046689;28;20136;-50
2022/06/16 07:14:29;;;;;;;8.32;5.88;;;18.20;84.00;;;;;;5052217;28;20143;-54
2022/06/16 07:17:15;;;;;;;7.75;5.90;;;18.10;84.10;;;;;;5050457;28;20032;-47
2022/06/16 07:19:59;;;;;;;12.15;6.00;;;18.20;84.10;;;;;;5047797;28;20120;-53
2022/06/16 07:22:44;;;;;;;9.20;5.38;;;18.20;83.70;;;;;;5045885;28;20150;-56
2022/06/16 07:25:29;;;;;;;10.73;6.28;;;18.10;84.10;;;;;;5041238;28;20040;-52
2022/06/16 07:28:13;;;;;;;9.25;5.90;;;18.20;84.10;;;;;;5043489;28;20407;-50
2022/06/16 07:30:58;;;;;;;10.20;6.00;;;18.30;84.10;;;;;;5045180;28;20850;-54
2022/06/16 07:33:42;;;;;;;9.82;6.15;;;18.30;83.80;;;;;;5043621;28;20045;-49
2022/06/16 07:36:26;;;;;;;11.48;6.60;;;18.30;83.50;;;;;;5042610;28;20037;-51
2022/06/16 07:39:11;;;;;;;10.15;5.30;;;18.30;83.90;;;;;;5043860;28;20031;-48
2022/06/16 07:41:55;;;;;;;8.80;6.22;;;18.40;84.00;;;;;;5046840;28;20087;-54
2022/06/16 07:44:40;;;;;;;8.98;6.20;;;18.70;83.20;;;;;;5042939;28;20037;-53
2022/06/16 07:47:24;;;;;;;9.88;6.03;;;18.70;83.10;;;;;;5047150;28;20044;-51
2022/06/16 07:50:09;;;;;;;8.02;6.05;;;18.70;83.10;;;;;;5047789;28;20072;-50
2022/06/16 07:52:54;;;;;;;10.73;5.97;;;18.70;83.30;;;;;;5047864;28;20043;-52
2022/06/16 07:55:38;;;;;;;8.13;6.18;;;18.50;84.00;;;;;;5049842;28;20050;-53
2022/06/16 07:58:23;;;;;;;10.30;6.40;;;18.60;83.90;;;;;;5037790;28;20052;-53
2022/06/16 08:01:07;;;;;;;7.32;6.30;;;18.70;83.50;;;;;;5050420;28;20094;-52
2022/06/16 08:03:52;;;;;;;11.23;6.53;;;18.70;83.40;;;;;;5049538;28;20044;-54
2022/06/16 08:06:37;;;;;;;9.90;6.43;;;18.50;83.60;;;;;;5048273;28;20082;-51
2022/06/16 08:09:21;;;;;;;10.95;6.65;;;18.50;83.60;;;;;;5049525;28;20025;-52
2022/06/16 08:12:10;;;;;;;11.00;7.10;;;18.50;84.00;;;;;;5050255;28;20087;-48
2022/06/16 08:14:55;;;;;;;11.25;6.43;;;18.60;83.90;;;;;;5035586;28;20099;-53
2022/06/16 08:17:42;;;;;;;9.65;6.15;;;18.70;84.10;;;;;;5049338;28;20031;-50
2022/06/16 08:20:27;;;;;;;12.70;6.50;;;19.00;83.10;;;;;;5051083;28;20052;-50
2022/06/16 08:23:11;;;;;;;7.85;6.40;;;18.90;83.70;;;;;;5048892;28;20047;-51
2022/06/16 08:25:56;;;;;;;14.13;6.50;;;18.90;84.50;;;;;;5047437;28;20442;-47
2022/06/16 08:28:40;;;;;;;8.45;6.53;;;19.10;83.90;;;;;;5048597;28;20043;-48
2022/06/16 08:31:25;;;;;;;;;;;19.20;82.90;;;;;;5050262;28;20099;-48
2022/06/16 08:34:09;;;;;;;10.10;6.38;;;19.30;83.00;;;;;;5035122;28;19915;-53
2022/06/16 08:36:54;;;;;;;7.57;6.20;;;19.30;82.80;;;;;;5031713;28;20063;-55
2022/06/16 08:39:38;;;;;;;9.15;6.47;;;19.20;82.40;;;;;;5049691;28;20036;-50
2022/06/16 08:42:40;;;;;;;10.88;6.85;;;19.10;82.80;;;;;;5047740;28;20456;-53
2022/06/16 08:45:35;;;;;;;11.95;7.25;;;19.10;83.00;;;;;;5048250;28;20068;-48
2022/06/16 08:49:10;;;;;;;12.07;7.22;;;19.20;82.00;;;;;;5048427;28;20032;-49
2022/06/16 08:52:33;;;;;;;7.60;6.60;;;19.00;82.50;;;;;;5020818;28;20091;-50
2022/06/16 08:55:37;;;;;;;10.73;6.53;;;19.00;82.60;;;;;;5044364;28;20510;-51
2022/06/16 08:58:38;;;;;;;9.52;7.10;;;19.10;82.40;;;;;;5041550;28;20028;-52
2022/06/16 09:01:35;;;;;;;9.45;6.40;;;19.00;82.80;;;;;;5041410;28;20116;-49
2022/06/16 09:04:32;;;;;;;7.45;6.70;;;18.90;83.40;;;;;;5046862;28;20566;-50
2022/06/16 09:07:44;;;;;;;8.93;6.00;;;19.20;82.60;;;;;;5050504;28;20024;-53
2022/06/16 09:10:37;;;;;;;9.70;6.88;;;19.30;82.40;;;;;;5050173;28;21104;-50
2022/06/16 09:13:45;;;;;;;12.68;7.68;;;19.10;82.90;;;;;;5055156;28;20635;-53
2022/06/16 09:17:05;;;;;;;11.80;6.75;;;19.20;82.60;;;;;;5060403;28;20027;-53
2022/06/16 09:20:14;;;;;;;9.57;7.00;;;19.50;82.30;;;;;;5056489;28;20388;-49
2022/06/16 09:22:58;;;;;;;12.18;7.43;;;20.00;80.80;;;;;;5058083;28;20415;-49
2022/06/16 09:26:12;;;;;;;12.82;7.40;;;19.90;80.80;;;;;;5056895;28;20511;-46
2022/06/16 09:29:14;;;;;;;10.88;6.97;;;19.90;79.50;;;;;;5057799;28;20101;-53
2022/06/16 09:32:13;;;;;;;9.15;7.18;;;19.90;79.30;;;;;;5056474;28;20052;-52
2022/06/16 09:35:12;;;;;;;12.85;7.00;;;19.90;80.30;;;;;;5059859;28;20393;-52
2022/06/16 09:38:05;;;;;;;12.57;7.13;;;20.00;80.10;;;;;;5062920;28;20392;-54
2022/06/16 09:40:51;;;;;;;12.55;6.93;;;20.20;79.40;;;;;;5063872;28;20040;-52
2022/06/16 09:43:41;;;;;;;9.32;6.63;;;20.20;79.20;;;;;;5066604;28;20121;-52
2022/06/16 09:46:32;;;;;;;11.30;6.57;;;20.40;79.20;;;;;;5065796;28;20037;-51
2022/06/16 09:49:28;;;;;;;10.02;5.70;;;20.40;78.30;;;;;;5063160;28;20071;-53
2022/06/16 09:52:20;;;;;;;8.70;6.72;;;20.30;78.00;;;;;;5062769;28;20544;-54
2022/06/16 09:55:11;;;;;;;13.55;6.97;;;20.40;77.70;;;;;;5061706;28;20023;-56
2022/06/16 09:58:02;;;;;;;7.35;6.03;;;20.50;77.40;;;;;;5062064;28;20074;-49
2022/06/16 10:00:48;;;;;;;9.68;5.95;;;21.10;76.90;;;;;;5055452;28;20131;-52
2022/06/16 10:03:35;;;;;;;12.13;6.40;;;21.50;75.80;;;;;;5053769;28;20151;-48
2022/06/16 10:06:39;;;;;;;10.93;7.10;;;21.60;75.00;;;;;;5052723;28;20040;-53
2022/06/16 10:09:26;;;;;;;8.35;6.80;;;21.40;74.90;;;;;;5055121;28;20074;-47
2022/06/16 10:12:27;;;;;;;12.15;6.68;;;21.50;75.20;;;;;;5053837;28;20048;-47
2022/06/16 10:15:43;;;;;;;13.07;6.88;;;21.60;75.10;;;;;;5038685;28;20122;-49
2022/06/16 10:18:28;;;;;;;14.98;6.80;;;21.70;74.10;;;;;;5053204;28;20114;-56
2022/06/16 10:21:13;;;;;;;10.18;6.63;;;21.60;74.70;;;;;;5053120;28;20048;-51
2022/06/16 10:24:00;;;;;;;10.48;6.47;;;21.30;75.20;;;;;;5052932;28;20064;-52
2022/06/16 10:26:44;;;;;;;12.95;6.80;;;21.40;75.20;;;;;;5050460;28;20032;-51
2022/06/16 10:29:32;;;;;;;12.05;7.15;;;21.50;74.80;;;;;;5070220;28;20039;-49
2022/06/16 10:32:17;;;;;;;10.75;6.97;;;21.60;74.30;;;;;;5073604;28;20506;-52
2022/06/16 10:35:03;;;;;;;11.10;6.82;;;21.60;74.80;;;;;;5057179;28;20436;-56
2022/06/16 10:37:52;;;;;;;10.13;6.50;;;21.90;73.80;;;;;;5053731;28;20028;-50
2022/06/16 10:40:40;;;;;;;11.38;6.47;;;21.70;73.80;;;;;;5053775;28;20028;-51
2022/06/16 10:43:26;;;;;;;10.25;5.97;;;21.90;73.60;;;;;;5053028;28;20059;-55
2022/06/16 10:46:13;;;;;;;13.57;6.22;;;22.10;73.00;;;;;;5052776;28;20064;-51
2022/06/16 10:49:01;;;;;;;7.07;5.45;;;22.10;71.60;;;;;;5037532;28;20071;-53
2022/06/16 10:51:54;;;;;;;7.97;5.60;;;21.90;72.10;;;;;;5052779;28;20082;-54
2022/06/16 10:55:05;;;;;;;12.15;5.43;;;22.00;71.60;;;;;;5053520;28;20538;-54
2022/06/16 10:57:58;;;;;;;8.20;4.80;;;22.00;71.80;;;;;;5053004;28;20070;-55
2022/06/16 11:00:58;;;;;;;9.02;5.13;;;22.40;70.20;;;;;;5053932;28;20071;-51
2022/06/16 11:04:07;;;;;;;10.05;5.40;;;22.50;70.00;;;;;;5053242;28;20036;-52
2022/06/16 11:06:57;;;;;;;8.27;5.82;;;22.40;70.70;;;;;;5052498;28;20159;-51
2022/06/16 11:09:41;;;;;;;8.02;5.07;;;22.40;70.90;;;;;;5052986;28;20040;-55
2022/06/16 11:12:25;;;;;;;7.80;5.20;;;22.80;70.30;;;;;;5037835;28;20121;-53
2022/06/16 11:15:20;;;;;;;9.18;4.53;;;22.80;68.00;;;;;;5052774;28;20040;-53
2022/06/16 11:18:11;;;;;;;9.25;4.70;;;22.80;67.30;;;;;;5053009;28;20087;-50
2022/06/16 11:20:58;;;;;;;9.05;4.90;;;22.80;67.50;;;;;;5053853;28;20452;-53
2022/06/16 11:23:48;;;;;;;6.40;4.72;;;23.10;67.50;;;;;;5053438;28;20040;-54
2022/06/16 11:26:37;;;;;;;8.02;4.68;;;23.40;66.90;;;;;;5053128;28;20078;-53
2022/06/16 11:29:29;;;;;;;7.63;4.78;;;23.30;66.70;;;;;;5052793;28;20036;-50
2022/06/16 11:32:19;;;;;;;7.72;4.90;;;23.00;67.00;;;;;;5053041;28;20063;-49
2022/06/16 11:35:08;;;;;;;9.57;5.00;;;23.10;66.80;;;;;;5052719;28;20032;-50
2022/06/16 11:38:01;;;;;;;7.47;4.35;;;23.00;66.80;;;;;;5052465;28;20473;-54
2022/06/16 11:40:59;;;;;;;7.32;4.78;;;23.30;66.70;;;;;;5052430;28;20156;-48
2022/06/16 11:44:10;;;;;;;10.60;5.45;;;23.30;66.00;;;;;;5052593;28;20028;-47
2022/06/16 11:47:09;;;;;;;9.77;4.82;;;23.20;65.70;;;;;;5051732;28;20105;-49
2022/06/16 11:50:09;;;;;;;6.53;4.70;;;23.40;65.80;;;;;;5052634;28;20079;-52
2022/06/16 11:53:25;;;;;;;10.05;5.82;;;23.30;65.30;;;;;;5052314;28;20496;-52
2022/06/16 11:56:31;;;;;;;7.55;5.10;;;23.60;65.50;;;;;;5051605;28;20063;-52
2022/06/16 11:59:40;;;;;;;12.48;4.40;;;23.60;64.50;;;;;;5052370;28;20063;-51
2022/06/16 12:03:16;;;;;;;9.30;4.82;;;23.60;64.50;;;;;;5052519;28;20381;-50
2022/06/16 12:06:19;;;;;;;;;;;23.80;64.20;;;;;;4991523;28;20041;-50
2022/06/16 12:09:31;;;;;;;8.85;4.85;;;23.80;64.00;;;;;;5052215;28;19958;-55
2022/06/16 12:12:42;;;;;;;9.27;4.95;;;23.80;64.40;;;;;;5052881;28;20086;-51
2022/06/16 12:15:54;;;;;;;7.07;4.97;;;23.90;65.00;;;;;;5036514;28;20031;-53
2022/06/16 12:18:57;;;;;;;6.47;4.50;;;24.10;64.40;;;;;;5051870;28;20024;-49
2022/06/16 12:22:01;;;;;;;9.75;4.78;;;24.20;63.50;;;;;;5052323;28;20063;-57
2022/06/16 12:24:51;;;;;;;8.43;4.60;;;24.10;63.40;;;;;;5052128;28;20089;-49
2022/06/16 12:27:46;;;;;;;10.82;4.72;;;24.40;62.70;;;;;;5047057;28;20098;-51
2022/06/16 12:30:38;;;;;;;6.75;4.75;;;24.60;61.70;;;;;;5051816;28;20055;-53
2022/06/16 12:33:45;;;;;;;8.65;4.75;;;24.60;61.50;;;;;;5052846;28;20062;-53
2022/06/16 12:36:40;;;;;;;8.45;4.90;;;24.70;61.10;;;;;;5050748;28;20040;-50
2022/06/16 12:39:35;;;;;;;;;;;24.90;61.30;;;;;;5051947;28;20132;-54
2022/06/16 12:42:24;;;;;;;7.50;5.32;;;25.20;60.50;;;;;;5052748;28;19911;-54
2022/06/16 12:45:24;;;;;;;11.40;5.82;;;25.20;60.40;;;;;;5053707;28;20511;-52
2022/06/16 12:48:21;;;;;;;7.05;5.32;;;25.20;60.60;;;;;;5051922;28;20040;-52
2022/06/16 12:51:10;;;;;;;9.95;6.20;;;25.00;60.40;;;;;;5051086;28;20541;-53
2022/06/16 12:54:13;;;;;;;11.05;5.82;;;25.10;60.20;;;;;;5051433;28;20059;-52
2022/06/16 12:57:11;;;;;;;9.52;5.72;;;25.10;59.40;;;;;;5050598;28;20082;-53
2022/06/16 12:59:59;;;;;;;15.15;7.00;;;25.20;59.60;;;;;;5051457;28;20654;-56
2022/06/16 13:02:58;;;;;;;13.82;7.03;;;25.20;59.10;;;;;;5052082;28;20044;-48
2022/06/16 13:05:43;;;;;;;7.35;6.03;;;25.20;59.90;;;;;;5035699;28;20028;-53
2022/06/16 13:08:30;;;;;;;10.70;7.20;;;25.40;59.60;;;;;;5050644;28;20108;-54
2022/06/16 13:11:25;;;;;;;12.32;7.20;;;25.60;57.50;;;;;;5051005;28;20086;-53
2022/06/16 13:14:18;;;;;;;8.50;6.90;;;25.80;58.30;;;;;;5055833;28;20044;-51
2022/06/16 13:17:10;;;;;;;9.38;6.53;;;25.40;59.20;;;;;;5055050;28;20036;-53
2022/06/16 13:20:00;;;;;;;10.63;6.70;;;25.20;58.70;;;;;;5055218;28;20044;-50
2022/06/16 13:23:04;;;;;;;18.25;8.20;;;25.10;58.40;;;;;;5055199;28;20091;-55
2022/06/16 13:26:06;;;;;;;7.95;5.90;;;25.20;59.20;;;;;;5054136;28;20028;-55
2022/06/16 13:28:59;;;;;;;8.38;5.40;;;25.40;57.80;;;;;;5054876;28;20028;-53
2022/06/16 13:31:43;;;;;;;6.63;4.97;;;25.60;57.50;;;;;;5055529;28;20031;-53
2022/06/16 13:34:49;;;;;;;10.85;6.75;;;25.70;57.00;;;;;;5055085;28;20093;-47
2022/06/16 13:37:41;;;;;;;9.00;5.95;;;25.70;57.70;;;;;;5055040;28;20044;-52
2022/06/16 13:40:27;;;;;;;10.85;6.55;;;25.80;57.60;;;;;;5054892;28;20059;-53
2022/06/16 13:43:19;;;;;;;10.70;6.07;;;26.00;58.20;;;;;;5054211;28;20031;-54
2022/06/16 13:46:04;;;;;;;8.45;5.43;;;26.10;57.50;;;;;;5037461;28;20099;-51
2022/06/16 13:48:50;;;;;;;12.43;5.32;;;26.20;57.10;;;;;;5053676;28;20420;-51
2022/06/16 13:51:41;;;;;;;7.75;4.82;;;26.20;57.20;;;;;;5054862;28;20040;-52
2022/06/16 13:54:34;;;;;;;6.10;4.90;;;26.10;55.40;;;;;;5055198;28;20071;-52
2022/06/16 13:57:19;;;;;;;7.43;5.33;;;26.30;55.60;;;;;;5054118;28;20106;-53
2022/06/16 14:00:08;;;;;;;6.05;4.95;;;26.70;55.20;;;;;;5054725;28;20086;-51
2022/06/16 14:02:57;;;;;;;8.98;4.57;;;26.40;55.80;;;;;;5054697;28;20725;-51
2022/06/16 14:06:05;;;;;;;10.27;5.07;;;26.30;56.60;;;;;;5053897;28;20400;-54
2022/06/16 14:08:52;;;;;;;5.72;4.15;;;26.20;56.30;;;;;;5054720;28;20052;-52
2022/06/16 14:12:01;;;;;;;9.63;4.63;;;26.30;56.40;;;;;;5054508;28;20032;-53
2022/06/16 14:14:49;;;;;;;8.13;4.25;;;26.20;54.50;;;;;;5055170;28;20032;-51
2022/06/16 14:17:37;;;;;;;6.53;4.63;;;26.10;55.00;;;;;;5039762;28;20032;-50
2022/06/16 14:20:27;;;;;;;8.00;4.72;;;26.20;54.30;;;;;;5053387;28;20051;-52
2022/06/16 14:23:19;;;;;;;7.47;3.97;;;26.10;55.00;;;;;;5052926;28;20106;-50
2022/06/16 14:26:08;;;;;;;7.07;3.83;;;26.30;54.90;;;;;;5052832;28;20036;-52
2022/06/16 14:28:59;;;;;;;8.27;4.00;;;26.50;52.50;;;;;;5061630;28;20397;-54
2022/06/16 14:31:51;;;;;;;10.00;3.72;;;26.00;52.20;;;;;;5053302;28;20028;-53
2022/06/16 14:34:41;;;;;;;5.18;3.50;;;26.20;51.90;;;;;;5052679;28;20454;-51
2022/06/16 14:38:05;;;;;;;5.05;3.08;;;26.20;50.70;;;;;;5044332;28;20083;-56
2022/06/16 14:40:58;;;;;;;6.80;3.38;;;26.40;51.00;;;;;;5053836;28;20060;-54
2022/06/16 14:43:54;;;;;;;7.57;3.70;;;26.50;52.40;;;;;;5053855;28;20721;-53
2022/06/16 14:47:02;;;;;;;7.72;3.58;;;26.50;51.50;;;;;;5054347;28;20032;-55
2022/06/16 14:50:16;;;;;;;6.40;3.85;;;26.40;51.70;;;;;;5054505;28;20500;-55
2022/06/16 14:53:12;;;;;;;7.57;3.80;;;26.40;52.50;;;;;;5053106;28;20039;-54
2022/06/16 14:56:10;;;;;;;6.40;4.07;;;26.80;51.90;;;;;;5037588;28;20116;-57
2022/06/16 14:58:59;;;;;;;5.55;3.45;;;26.60;52.40;;;;;;5053936;28;20028;-56
2022/06/16 15:01:47;;;;;;;6.72;3.60;;;26.60;52.70;;;;;;5053371;28;20090;-54